Time;durP1;ratioP1;P1;durP2;ratioP2;P2;SDS_P1;SDS_P2;PMS_P1;PMS_P2;Temp;Humidity;BMP_temperature;BMP_pressure;BME280_temperature;BME280_humidity;BME280_pressure;Samples;Min_cycle;Max_cycle;Signal;HPM_P1;HPM_P2
2022/05/26 00:01:16;;;;;;;;;;;22.10;99.90;;;;;;5050167;28;19913;-72
2022/05/26 00:03:43;;;;;;;;;;;22.10;99.90;;;;;;5051034;28;19992;-70
2022/05/26 00:06:09;;;;;;;;;;;22.00;99.90;;;;;;5047536;28;20399;-68
2022/05/26 00:08:36;;;;;;;;;;;21.90;99.90;;;;;;5047599;28;19985;-69
2022/05/26 00:11:03;;;;;;;;;;;21.90;99.90;;;;;;5041867;28;19924;-72
2022/05/26 00:13:28;;;;;;;;;;;22.00;99.90;;;;;;5045953;28;19917;-70
2022/05/26 00:15:54;;;;;;;;;;;21.90;99.90;;;;;;5050164;28;20320;-72
2022/05/26 00:18:20;;;;;;;;;;;21.90;99.90;;;;;;5049241;28;19913;-71
2022/05/26 00:20:46;;;;;;;;;;;21.90;99.90;;;;;;5050833;28;20267;-71
2022/05/26 00:23:12;;;;;;;;;;;21.90;99.90;;;;;;5050706;28;20007;-70
2022/05/26 00:25:37;;;;;;;;;;;21.90;99.90;;;;;;5050948;28;19917;-72
2022/05/26 00:28:03;;;;;;;;;;;21.90;99.90;;;;;;5054900;28;19916;-72
2022/05/26 00:30:28;;;;;;;;;;;21.90;99.90;;;;;;5049892;28;19912;-72
2022/05/26 00:32:54;;;;;;;;;;;21.90;99.90;;;;;;5049840;28;19999;-72
2022/05/26 00:35:20;;;;;;;;;;;21.90;99.90;;;;;;5051292;28;20374;-71
2022/05/26 00:37:46;;;;;;;;;;;22.00;99.90;;;;;;5049621;28;20033;-70
2022/05/26 00:40:12;;;;;;;;;;;22.00;99.90;;;;;;5050541;28;19913;-71
2022/05/26 00:42:39;;;;;;;;;;;22.00;99.90;;;;;;5051946;28;19913;-71
2022/05/26 00:45:05;;;;;;;;;;;21.90;99.90;;;;;;5051166;28;19913;-73
2022/05/26 00:47:33;;;;;;;;;;;21.70;99.90;;;;;;5050757;28;19925;-72
2022/05/26 00:50:14;;;;;;;;;;;21.80;99.90;;;;;;5050996;28;20359;-72
2022/05/26 00:52:45;;;;;;;;;;;21.80;99.90;;;;;;5055478;28;20374;-70
2022/05/26 00:55:14;;;;;;;;;;;21.70;99.90;;;;;;5049216;28;19913;-71
2022/05/26 00:57:43;;;;;;;;;;;21.60;99.90;;;;;;5060305;28;20389;-68
2022/05/26 01:00:19;;;;;;;;;;;21.70;99.90;;;;;;5047204;28;20147;-71
2022/05/26 01:02:48;;;;;;;;;;;21.60;99.90;;;;;;5051135;28;19955;-71
2022/05/26 01:05:21;;;;;;;;;;;21.60;99.90;;;;;;5058681;28;19919;-72
2022/05/26 01:07:47;;;;;;;;;;;21.60;99.90;;;;;;5047417;28;20328;-69
2022/05/26 01:10:14;;;;;;;;;;;21.50;99.90;;;;;;5045724;28;20390;-71
2022/05/26 01:12:40;;;;;;;;;;;21.60;99.90;;;;;;5049010;28;19918;-72
2022/05/26 01:15:07;;;;;;;;;;;21.50;99.90;;;;;;5041569;28;19921;-71
2022/05/26 01:17:39;;;;;;;;;;;21.50;99.90;;;;;;5031252;28;19912;-72
2022/05/26 01:20:04;;;;;;;;;;;21.50;99.90;;;;;;5044711;28;19916;-70
2022/05/26 01:22:48;;;;;;;;;;;21.50;99.90;;;;;;5049394;28;19996;-71
2022/05/26 01:25:14;;;;;;;;;;;21.50;99.90;;;;;;5048006;28;19923;-70
2022/05/26 01:27:44;;;;;;;;;;;21.60;99.90;;;;;;5045683;28;19920;-71
2022/05/26 01:30:10;;;;;;;;;;;21.70;99.90;;;;;;5048139;28;19919;-71
2022/05/26 01:32:45;;;;;;;;;;;21.70;99.90;;;;;;5048197;28;20056;-72
2022/05/26 01:35:14;;;;;;;;;;;21.70;99.90;;;;;;5029387;28;19916;-72
2022/05/26 01:37:43;;;;;;;;;;;21.70;99.90;;;;;;5057251;28;20007;-72
2022/05/26 01:40:14;;;;;;;;;;;21.70;99.90;;;;;;5048282;28;19951;-72
2022/05/26 01:42:43;;;;;;;;;;;21.70;99.90;;;;;;5049060;28;19981;-72
2022/05/26 01:45:20;;;;;;;;;;;21.60;99.90;;;;;;5030564;28;19909;-72
2022/05/26 01:47:49;;;;;;;;;;;21.80;99.90;;;;;;5049453;28;19963;-70
2022/05/26 01:50:15;;;;;;;;;;;21.70;99.90;;;;;;5049352;28;20329;-72
2022/05/26 01:52:40;;;;;;;;;;;21.80;99.90;;;;;;5051137;28;19909;-72
2022/05/26 01:55:06;;;;;;;;;;;21.80;99.90;;;;;;5051542;28;19962;-71
2022/05/26 01:57:37;;;;;;;;;;;21.80;99.90;;;;;;5048273;28;19951;-70
2022/05/26 02:00:06;;;;;;;;;;;21.80;99.90;;;;;;5054016;28;19995;-71
2022/05/26 02:02:34;;;;;;;;;;;21.70;99.90;;;;;;5062482;28;19901;-70
2022/05/26 02:05:14;;;;;;;;;;;21.80;99.90;;;;;;5064171;28;20396;-71
2022/05/26 02:07:48;;;;;;;;;;;21.80;99.90;;;;;;5054333;28;19916;-70
2022/05/26 02:10:16;;;;;;;;;;;21.80;99.90;;;;;;5060660;28;19936;-72
2022/05/26 02:12:46;;;;;;;;;;;21.70;99.90;;;;;;5057290;28;19913;-71
2022/05/26 02:15:18;;;;;;;;;;;21.80;99.90;;;;;;5048831;28;20359;-72
2022/05/26 02:17:46;;;;;;;;;;;21.80;99.90;;;;;;5051554;28;19913;-71
2022/05/26 02:20:26;;;;;;;;;;;21.80;99.90;;;;;;5049255;28;20386;-71
2022/05/26 02:22:54;;;;;;;;;;;21.70;99.90;;;;;;5061610;28;20385;-72
2022/05/26 02:25:21;;;;;;;;;;;21.70;99.90;;;;;;5058887;28;19912;-72
2022/05/26 02:27:49;;;;;;;;;;;21.70;99.90;;;;;;5049982;28;19920;-72
2022/05/26 02:30:15;;;;;;;;;;;21.70;99.90;;;;;;5039271;28;19938;-72
2022/05/26 02:32:52;;;;;;;;;;;21.60;99.90;;;;;;5052305;28;20374;-72
2022/05/26 02:35:17;;;;;;;;;;;21.60;99.90;;;;;;5047308;28;19928;-72
2022/05/26 02:37:47;;;;;;;;;;;21.60;99.90;;;;;;5049554;28;19909;-71
2022/05/26 02:40:13;;;;;;;;;;;21.60;99.90;;;;;;5054657;28;20396;-72
2022/05/26 02:42:41;;;;;;;;;;;21.40;99.90;;;;;;5048166;28;19999;-70
2022/05/26 02:45:07;;;;;;;;;;;21.50;99.90;;;;;;5048563;28;19917;-73
2022/05/26 02:47:52;;;;;;;;;;;21.50;99.90;;;;;;5063236;28;19912;-71
2022/05/26 02:50:36;;;;;;;;;;;21.50;99.90;;;;;;5057205;28;19921;-71
2022/05/26 02:53:04;;;;;;;;;;;21.50;99.90;;;;;;5053442;28;19951;-71
2022/05/26 02:55:35;;;;;;;;;;;21.50;99.90;;;;;;5050348;28;19913;-72
2022/05/26 02:58:21;;;;;;;;;;;21.40;99.90;;;;;;5047145;28;20138;-70
2022/05/26 03:00:48;;;;;;;;;;;21.40;99.90;;;;;;5055925;28;19917;-71
2022/05/26 03:03:14;;;;;;;;;;;21.50;99.90;;;;;;5049365;28;20070;-70
2022/05/26 03:05:58;;;;;;;;;;;21.50;99.90;;;;;;5053803;28;21787;-70
2022/05/26 03:08:25;;;;;;;;;;;21.50;99.90;;;;;;5054694;28;19916;-69
2022/05/26 03:10:52;;;;;;;;;;;21.50;99.90;;;;;;5049133;28;19913;-72
2022/05/26 03:13:17;;;;;;;;;;;21.50;99.90;;;;;;5039385;28;19916;-71
2022/05/26 03:15:43;;;;;;;;;;;21.60;99.90;;;;;;5048284;28;19913;-72
2022/05/26 03:18:09;;;;;;;;;;;21.60;99.90;;;;;;5041098;28;19917;-70
2022/05/26 03:20:35;;;;;;;;;;;21.50;99.90;;;;;;5043207;28;19913;-73
2022/05/26 03:23:01;;;;;;;;;;;21.50;99.90;;;;;;5049240;28;19920;-71
2022/05/26 03:25:26;;;;;;;;;;;21.50;99.90;;;;;;5050643;28;20355;-72
2022/05/26 03:27:52;;;;;;;;;;;21.50;99.90;;;;;;5059501;28;20000;-72
2022/05/26 03:30:18;;;;;;;;;;;21.50;99.90;;;;;;5050256;28;19958;-71
2022/05/26 03:32:45;;;;;;;;;;;21.40;99.90;;;;;;5051369;28;20323;-72
2022/05/26 03:40:53;;;;;;;;;;;21.50;99.90;;;;;;5049378;28;19919;-71
2022/05/26 03:43:20;;;;;;;;;;;21.50;99.90;;;;;;5055018;28;19912;-72
2022/05/26 03:45:46;;;;;;;;;;;21.60;99.90;;;;;;5051212;28;19913;-70
2022/05/26 03:48:11;;;;;;;;;;;21.60;99.90;;;;;;5048422;28;19936;-71
2022/05/26 03:50:37;;;;;;;;;;;21.60;99.90;;;;;;5052058;28;19917;-72
2022/05/26 03:53:03;;;;;;;;;;;21.50;99.90;;;;;;5053302;28;19916;-73
2022/05/26 03:55:28;;;;;;;;;;;21.50;99.90;;;;;;5049596;28;19952;-72
2022/05/26 03:57:54;;;;;;;;;;;21.50;99.90;;;;;;5050558;28;19930;-71
2022/05/26 04:00:22;;;;;;;;;;;21.50;99.90;;;;;;5051174;28;19999;-71
2022/05/26 04:02:48;;;;;;;;;;;21.60;99.90;;;;;;5034063;28;19915;-69
2022/05/26 04:05:14;;;;;;;;;;;21.50;99.90;;;;;;5059320;28;20334;-72
2022/05/26 04:07:39;;;;;;;;;;;21.50;99.90;;;;;;5046283;28;20054;-70
2022/05/26 04:10:06;;;;;;;;;;;21.60;99.90;;;;;;5049686;28;19913;-72
2022/05/26 04:12:32;;;;;;;;;;;21.60;99.90;;;;;;5052366;28;19949;-71
2022/05/26 04:14:58;;;;;;;;;;;21.60;99.90;;;;;;5031701;28;19959;-71
2022/05/26 04:17:24;;;;;;;;;;;21.70;99.90;;;;;;5051795;28;19952;-69
2022/05/26 04:19:49;;;;;;;;;;;21.80;99.90;;;;;;5054263;28;19912;-73
2022/05/26 04:22:15;;;;;;;;;;;21.90;99.90;;;;;;5048847;28;19919;-69
2022/05/26 04:24:41;;;;;;;;;;;21.80;99.90;;;;;;5050749;28;19913;-72
2022/05/26 04:27:07;;;;;;;;;;;21.80;99.90;;;;;;5056048;28;19927;-71
2022/05/26 04:29:33;;;;;;;;;;;21.80;99.90;;;;;;5036199;28;19916;-71
2022/05/26 04:31:59;;;;;;;;;;;21.90;99.90;;;;;;5051217;28;19919;-72
2022/05/26 04:34:25;;;;;;;;;;;21.90;99.90;;;;;;5054099;28;20282;-72
2022/05/26 04:36:51;;;;;;;;;;;21.80;99.90;;;;;;5049307;28;19917;-74
2022/05/26 04:39:17;;;;;;;;;;;21.80;99.90;;;;;;5057089;28;20186;-70
2022/05/26 04:41:43;;;;;;;;;;;21.80;99.90;;;;;;5051039;28;19919;-71
2022/05/26 04:44:13;;;;;;;;;;;21.70;99.90;;;;;;5029741;28;19912;-70
2022/05/26 04:46:39;;;;;;;;;;;21.60;99.90;;;;;;5050761;28;20307;-71
2022/05/26 04:49:05;;;;;;;;;;;21.70;99.90;;;;;;5049204;28;19964;-71
2022/05/26 04:51:31;;;;;;;;;;;21.80;99.90;;;;;;5050711;28;19955;-70
2022/05/26 04:53:57;;;;;;;;;;;21.90;99.90;;;;;;5047216;28;20302;-72
2022/05/26 04:56:23;;;;;;;;;;;21.90;99.90;;;;;;5058537;28;20000;-72
2022/05/26 04:58:51;;;;;;;;;;;21.70;99.90;;;;;;5052274;28;19923;-73
2022/05/26 05:01:19;;;;;;;;;;;21.80;99.90;;;;;;5032464;28;19917;-69
2022/05/26 05:03:45;;;;;;;;;;;21.80;99.90;;;;;;5047287;28;20047;-74
2022/05/26 05:06:11;;;;;;;;;;;21.80;99.90;;;;;;5050571;28;19916;-73
2022/05/26 05:08:37;;;;;;;;;;;21.90;99.90;;;;;;5051176;28;19916;-72
2022/05/26 05:11:03;;;;;;;;;;;21.90;99.90;;;;;;5046577;28;19916;-72
2022/05/26 05:13:28;;;;;;;;;;;21.80;99.90;;;;;;5031896;28;20370;-72
2022/05/26 05:16:03;;;;;;;;;;;21.80;99.90;;;;;;5028778;28;19917;-70
2022/05/26 05:18:28;;;;;;;;;;;21.80;99.90;;;;;;5048686;28;19917;-72
2022/05/26 05:20:57;;;;;;;;;;;21.80;99.90;;;;;;5048519;28;20008;-72
2022/05/26 05:23:22;;;;;;;;;;;22.00;99.90;;;;;;5058185;28;19920;-72
2022/05/26 05:25:49;;;;;;;;;;;22.10;99.90;;;;;;5059350;28;19912;-73
2022/05/26 05:28:17;;;;;;;;;;;22.20;99.90;;;;;;5044432;28;19917;-72
2022/05/26 05:30:52;;;;;;;;;;;22.20;99.90;;;;;;5049827;28;20363;-72
2022/05/26 05:33:23;;;;;;;;;;;22.30;99.90;;;;;;5047263;28;20393;-72
2022/05/26 05:35:49;;;;;;;;;;;22.40;99.90;;;;;;5050922;28;20003;-71
2022/05/26 05:38:15;;;;;;;;;;;22.30;99.90;;;;;;5050255;28;20055;-72
2022/05/26 05:40:41;;;;;;;;;;;22.40;99.90;;;;;;5049436;28;20413;-71
2022/05/26 05:43:07;;;;;;;;;;;22.40;99.90;;;;;;5049281;28;20015;-72
2022/05/26 05:45:32;;;;;;;;;;;22.50;99.90;;;;;;5047590;28;19913;-69
2022/05/26 05:47:58;;;;;;;;;;;22.40;99.90;;;;;;5048188;28;19959;-70
2022/05/26 05:50:23;;;;;;;;;;;22.30;99.90;;;;;;5049327;28;19948;-71
2022/05/26 05:52:49;;;;;;;;;;;22.30;99.90;;;;;;5052347;28;19913;-70
2022/05/26 05:55:15;;;;;;;;;;;22.30;99.90;;;;;;5061078;28;19974;-71
2022/05/26 05:57:40;;;;;;;;;;;22.30;99.90;;;;;;5049295;28;19913;-71
2022/05/26 06:00:07;;;;;;;;;;;22.30;99.90;;;;;;5060946;28;19913;-71
2022/05/26 06:02:32;;;;;;;;;;;22.30;99.90;;;;;;5060253;28;20271;-69
2022/05/26 06:04:58;;;;;;;;;;;22.40;99.90;;;;;;5056736;28;20007;-71
2022/05/26 06:07:23;;;;;;;;;;;22.30;99.90;;;;;;5045367;28;19920;-70
2022/05/26 06:09:50;;;;;;;;;;;22.40;99.90;;;;;;5051344;28;20427;-69
2022/05/26 06:12:16;;;;;;;;;;;22.50;99.90;;;;;;5059877;28;20361;-69
2022/05/26 06:14:42;;;;;;;;;;;22.60;99.90;;;;;;5041067;28;19955;-71
2022/05/26 06:17:09;;;;;;;;;;;22.80;99.90;;;;;;5064679;28;19952;-70
2022/05/26 06:19:35;;;;;;;;;;;22.90;99.90;;;;;;5060694;28;19908;-71
2022/05/26 06:22:07;;;;;;;;;;;23.00;99.90;;;;;;5058545;28;19971;-69
2022/05/26 06:24:33;;;;;;;;;;;23.10;99.90;;;;;;5057628;28;19909;-69
2022/05/26 06:26:58;;;;;;;;;;;23.20;99.90;;;;;;5054810;28;19920;-70
2022/05/26 06:37:38;;;;;;;;;;;23.80;99.90;;;;;;5059603;28;19923;-71
2022/05/26 06:40:05;;;;;;;;;;;23.80;99.90;;;;;;5060910;28;19935;-70
2022/05/26 06:42:30;;;;;;;;;;;23.80;99.90;;;;;;5046552;28;19909;-70
2022/05/26 06:44:56;;;;;;;;;;;23.90;99.90;;;;;;5056238;28;19920;-70
2022/05/26 06:47:22;;;;;;;;;;;23.90;99.90;;;;;;5049758;28;19974;-71
2022/05/26 06:49:48;;;;;;;;;;;24.00;99.90;;;;;;5059944;28;19921;-70
2022/05/26 06:52:15;;;;;;;;;;;24.00;99.90;;;;;;5055639;28;19960;-71
2022/05/26 06:54:42;;;;;;;;;;;24.10;99.90;;;;;;5058040;28;19960;-70
2022/05/26 06:57:08;;;;;;;;;;;24.10;99.90;;;;;;5055357;28;19999;-69
2022/05/26 06:59:34;;;;;;;;;;;23.90;99.90;;;;;;5049071;28;20302;-71
2022/05/26 07:02:00;;;;;;;;;;;23.80;99.90;;;;;;5046778;28;19952;-70
2022/05/26 07:04:26;;;;;;;;;;;23.80;99.90;;;;;;5044928;28;20340;-70
2022/05/26 07:06:52;;;;;;;;;;;23.80;99.90;;;;;;5047749;28;20011;-71
2022/05/26 07:09:19;;;;;;;;;;;23.80;99.90;;;;;;5043636;28;19916;-71
2022/05/26 07:11:44;;;;;;;;;;;23.90;99.90;;;;;;5052976;28;19913;-71
2022/05/26 07:14:10;;;;;;;;;;;23.90;99.90;;;;;;5059808;28;19916;-70
2022/05/26 07:16:36;;;;;;;;;;;24.00;99.90;;;;;;5050780;28;19913;-70
2022/05/26 07:19:02;;;;;;;;;;;24.10;99.90;;;;;;5052365;28;19959;-70
2022/05/26 07:21:27;;;;;;;;;;;24.10;99.90;;;;;;5052249;28;19917;-69
2022/05/26 07:23:53;;;;;;;;;;;24.30;99.90;;;;;;5052603;28;20045;-69
2022/05/26 07:26:21;;;;;;;;;;;24.20;99.90;;;;;;5058870;28;20371;-70
2022/05/26 07:28:47;;;;;;;;;;;24.40;99.90;;;;;;5049529;28;19917;-70
2022/05/26 07:31:13;;;;;;;;;;;24.60;99.90;;;;;;5053614;28;20329;-70
2022/05/26 07:33:39;;;;;;;;;;;24.80;99.90;;;;;;5050705;28;19940;-70
2022/05/26 07:36:05;;;;;;;;;;;24.80;99.90;;;;;;5044712;28;19920;-72
2022/05/26 07:41:31;;;;;;;;;;;24.80;99.90;;;;;;4991629;28;19924;-70
2022/05/26 07:43:58;;;;;;;;;;;24.80;99.90;;;;;;5051677;28;20007;-72
2022/05/26 07:46:24;;;;;;;;;;;24.90;99.90;;;;;;5062880;28;19912;-73
2022/05/26 07:48:50;;;;;;;;;;;24.90;99.90;;;;;;5034897;28;19917;-69
2022/05/26 07:51:19;;;;;;;;;;;25.00;99.90;;;;;;5050261;28;19920;-70
2022/05/26 07:53:45;;;;;;;;;;;24.90;99.90;;;;;;5048737;28;19917;-71
2022/05/26 07:56:11;;;;;;;;;;;25.00;99.90;;;;;;5052474;28;19913;-71
2022/05/26 07:58:36;;;;;;;;;;;25.30;99.90;;;;;;5055463;28;19916;-69
2022/05/26 08:01:03;;;;;;;;;;;25.60;99.90;;;;;;5054947;28;19944;-71
2022/05/26 08:03:29;;;;;;;;;;;25.80;99.90;;;;;;5051306;28;19917;-69
2022/05/26 08:05:54;;;;;;;;;;;25.80;99.90;;;;;;5059493;28;19934;-70
2022/05/26 08:08:20;;;;;;;;;;;26.10;99.90;;;;;;5052004;28;19924;-71
2022/05/26 08:10:46;;;;;;;;;;;26.40;99.90;;;;;;5053379;28;20452;-70
2022/05/26 08:13:11;;;;;;;;;;;26.60;99.90;;;;;;5060885;28;19931;-70
2022/05/26 08:15:37;;;;;;;;;;;26.60;99.90;;;;;;5054392;28;19913;-69
2022/05/26 08:18:03;;;;;;;;;;;26.40;99.90;;;;;;5054282;28;20456;-71
2022/05/26 08:20:28;;;;;;;;;;;26.00;99.90;;;;;;5054437;28;19952;-71
2022/05/26 08:22:54;;;;;;;;;;;25.90;99.90;;;;;;5053039;28;19944;-65
2022/05/26 08:25:20;;;;;;;;;;;25.50;99.90;;;;;;5056418;28;19931;-65
2022/05/26 08:27:45;;;;;;;;;;;25.40;99.90;;;;;;5061555;28;19948;-65
2022/05/26 08:30:11;;;;;;;;;;;25.40;99.90;;;;;;5054161;28;19909;-65
2022/05/26 08:32:37;;;;;;;;;;;25.40;99.90;;;;;;5034635;28;20386;-66
2022/05/26 08:35:04;;;;;;;;;;;25.60;99.90;;;;;;5054689;28;19912;-65
2022/05/26 08:37:30;;;;;;;;;;;25.60;99.90;;;;;;5052467;28;19936;-65
2022/05/26 08:39:55;;;;;;;;;;;25.80;99.90;;;;;;5058985;28;19913;-67
2022/05/26 08:42:23;;;;;;;;;;;25.90;99.90;;;;;;5057243;28;20555;-66
2022/05/26 08:44:49;;;;;;;;;;;26.00;99.90;;;;;;5051379;28;19968;-66
2022/05/26 08:47:16;;;;;;;;;;;26.20;99.90;;;;;;5054532;28;19939;-65
2022/05/26 08:49:42;;;;;;;;;;;26.20;99.90;;;;;;5051881;28;20338;-64
2022/05/26 08:52:07;;;;;;;;;;;26.40;99.90;;;;;;5052909;28;19913;-64
2022/05/26 08:54:43;;;;;;;;;;;26.50;99.90;;;;;;5049680;28;20041;-64
2022/05/26 08:57:11;;;;;;;;;;;26.90;99.90;;;;;;5062094;28;19979;-65
2022/05/26 08:59:41;;;;;;;;;;;27.20;99.90;;;;;;5060738;28;19917;-65
2022/05/26 09:02:16;;;;;;;;;;;27.20;99.90;;;;;;5072982;28;19908;-66
2022/05/26 09:04:42;;;;;;;;;;;27.00;99.90;;;;;;5046444;28;19913;-64
2022/05/26 09:12:56;;;;;;;;;;;27.00;99.90;;;;;;5054224;28;19916;-66
2022/05/26 09:15:22;;;;;;;;;;;27.30;99.90;;;;;;5059665;28;19952;-66
2022/05/26 09:17:48;;;;;;;;;;;27.60;99.90;;;;;;5064500;28;20378;-66
2022/05/26 09:20:33;;;;;;;;;;;27.80;99.90;;;;;;5054963;28;19920;-66
2022/05/26 09:23:07;;;;;;;;;;;28.20;99.90;;;;;;5047357;28;19969;-64
2022/05/26 09:25:39;;;;;;;;;;;28.20;99.90;;;;;;5049905;28;20313;-64
2022/05/26 09:28:07;;;;;;;;;;;27.90;99.90;;;;;;5064632;28;20452;-65
2022/05/26 09:30:33;;;;;;;;;;;28.10;99.90;;;;;;5071826;28;19915;-67
2022/05/26 09:32:59;;;;;;;;;;;28.20;99.90;;;;;;5068483;28;19931;-66
2022/05/26 09:35:26;;;;;;;;;;;28.30;99.90;;;;;;5045511;28;20385;-65
2022/05/26 09:37:52;;;;;;;;;;;27.90;99.90;;;;;;5049404;28;19920;-62
2022/05/26 09:40:19;;;;;;;;;;;27.80;99.90;;;;;;5057036;28;19913;-65
2022/05/26 09:42:47;;;;;;;;;;;27.30;99.90;;;;;;5050681;28;19913;-65
2022/05/26 09:45:17;;;;;;;;;;;27.10;99.90;;;;;;5058474;28;19912;-65
2022/05/26 09:47:53;;;;;;;;;;;27.10;99.90;;;;;;5056152;28;20398;-65
2022/05/26 09:50:48;;;;;;;;;;;26.90;99.90;;;;;;5052472;28;19971;-65
2022/05/26 09:53:26;;;;;;;;;;;26.80;99.90;;;;;;5006449;28;19927;-63
2022/05/26 09:55:54;;;;;;;;;;;26.70;99.90;;;;;;5050207;28;20047;-66
2022/05/26 09:58:34;;;;;;;;;;;26.50;99.90;;;;;;5051507;28;19922;-65
2022/05/26 10:01:03;;;;;;;;;;;26.40;99.90;;;;;;5054450;28;20055;-66
2022/05/26 10:03:52;;;;;;;;;;;26.30;99.90;;;;;;5050379;28;19962;-64
2022/05/26 10:06:18;;;;;;;;;;;26.40;99.90;;;;;;5053486;28;20033;-67
2022/05/26 10:08:55;;;;;;;;;;;26.50;99.90;;;;;;5057327;28;19960;-66
2022/05/26 10:11:47;;;;;;;;;;;26.40;99.90;;;;;;5051345;28;19936;-65
2022/05/26 10:14:15;;;;;;;;;;;26.30;99.90;;;;;;5055549;28;20310;-66
2022/05/26 10:16:43;;;;;;;;;;;26.40;99.90;;;;;;5060477;28;19909;-66
2022/05/26 10:19:15;;;;;;;;;;;26.40;99.90;;;;;;5060090;28;19913;-66
2022/05/26 10:21:50;;;;;;;;;;;26.40;99.90;;;;;;5051029;28;19920;-66
2022/05/26 10:24:16;;;;;;;;;;;26.20;99.90;;;;;;5050096;28;19920;-66
2022/05/26 10:26:47;;;;;;;;;;;26.20;99.90;;;;;;5050863;28;20295;-67
2022/05/26 10:29:28;;;;;;;;;;;26.20;99.90;;;;;;5051199;28;19913;-65
2022/05/26 10:31:53;;;;;;;;;;;26.40;99.90;;;;;;5051624;28;20513;-65
2022/05/26 10:34:21;;;;;;;;;;;26.50;99.90;;;;;;5051574;28;19916;-65
2022/05/26 10:37:00;;;;;;;;;;;26.70;99.90;;;;;;5048138;28;19917;-65
2022/05/26 10:39:41;;;;;;;;;;;26.70;99.90;;;;;;5057173;28;19995;-64
2022/05/26 10:42:07;;;;;;;;;;;26.80;99.90;;;;;;5057278;28;19912;-65
2022/05/26 10:44:36;;;;;;;;;;;26.80;99.90;;;;;;5051644;28;19916;-62
2022/05/26 10:47:12;;;;;;;;;;;26.90;99.90;;;;;;5059828;28;19980;-65
2022/05/26 10:49:38;;;;;;;;;;;27.10;99.90;;;;;;5062914;28;20019;-67
2022/05/26 10:52:07;;;;;;;;;;;27.30;99.90;;;;;;5068827;28;19951;-67
2022/05/26 10:54:39;;;;;;;;;;;27.30;99.90;;;;;;5067089;28;20015;-67
2022/05/26 10:57:26;;;;;;;;;;;27.50;99.90;;;;;;5051000;28;20311;-66
2022/05/26 11:00:00;;;;;;;;;;;27.30;99.90;;;;;;5065725;28;19978;-68
2022/05/26 11:02:29;;;;;;;;;;;27.20;99.90;;;;;;5060540;28;19913;-67
2022/05/26 11:04:56;;;;;;;;;;;27.30;99.90;;;;;;5049044;28;19916;-68
2022/05/26 11:07:31;;;;;;;;;;;27.20;99.90;;;;;;5035884;28;20361;-66
2022/05/26 11:10:04;;;;;;;;;;;27.20;99.90;;;;;;5063568;28;20444;-65
2022/05/26 11:12:33;;;;;;;;;;;27.40;99.90;;;;;;5049866;28;19917;-67
2022/05/26 11:17:53;;;;;;;;;;;27.50;99.90;;;;;;5057766;28;20418;-64
2022/05/26 11:20:20;;;;;;;;;;;27.50;99.90;;;;;;5058504;28;20000;-65
2022/05/26 11:22:46;;;;;;;;;;;27.50;99.90;;;;;;5053615;28;19924;-66
2022/05/26 11:25:19;;;;;;;;;;;27.40;99.90;;;;;;5053296;28;19916;-66
2022/05/26 11:28:07;;;;;;;;;;;27.50;99.90;;;;;;5052593;28;19919;-66
2022/05/26 11:36:32;;;;;;;;;;;27.80;99.90;;;;;;5047925;28;20015;-68
2022/05/26 11:39:01;;;;;;;;;;;27.70;99.90;;;;;;5050990;28;20425;-66
2022/05/26 11:41:31;;;;;;;;;;;27.40;99.90;;;;;;5053200;28;20274;-68
2022/05/26 11:43:57;;;;;;;;;;;27.30;99.90;;;;;;5051035;28;19951;-67
2022/05/26 11:46:41;;;;;;;;;;;27.30;99.90;;;;;;5052572;28;20354;-67
2022/05/26 11:49:07;;;;;;;;;;;27.40;99.90;;;;;;5050757;28;20345;-67
2022/05/26 11:51:41;;;;;;;;;;;27.70;99.90;;;;;;5034055;28;19920;-67
2022/05/26 11:54:08;;;;;;;;;;;27.70;99.90;;;;;;5049771;28;19913;-66
2022/05/26 11:56:39;;;;;;;;;;;27.70;99.90;;;;;;5052594;28;19912;-67
2022/05/26 11:59:17;;;;;;;;;;;27.70;99.90;;;;;;5053442;28;19948;-65
2022/05/26 12:01:45;;;;;;;;;;;28.00;99.90;;;;;;5052361;28;20000;-65
2022/05/26 12:04:24;;;;;;;;;;;28.20;99.90;;;;;;5053523;28;19909;-67
2022/05/26 12:06:55;;;;;;;;;;;28.40;99.90;;;;;;5033548;28;19947;-66
2022/05/26 12:09:27;;;;;;;;;;;28.20;99.90;;;;;;5052927;28;19966;-66
2022/05/26 12:11:57;;;;;;;;;;;28.00;99.90;;;;;;5051415;28;19921;-65
2022/05/26 12:14:25;;;;;;;;;;;27.80;99.90;;;;;;5051808;28;19912;-68
2022/05/26 12:16:51;;;;;;;;;;;27.60;99.90;;;;;;5052452;28;19913;-66
2022/05/26 12:19:40;;;;;;;;;;;27.50;99.90;;;;;;5050665;28;20318;-67
2022/05/26 12:22:22;;;;;;;;;;;27.50;99.90;;;;;;5037032;28;19913;-65
2022/05/26 12:25:02;;;;;;;;;;;27.40;99.90;;;;;;5049308;28;20012;-65
2022/05/26 12:27:46;;;;;;;;;;;27.50;99.90;;;;;;5047574;28;19923;-67
2022/05/26 12:30:28;;;;;;;;;;;27.60;99.90;;;;;;5050089;28;20014;-67
2022/05/26 12:32:54;;;;;;;;;;;27.70;99.90;;;;;;5050806;28;19952;-66
2022/05/26 12:35:23;;;;;;;;;;;27.50;99.90;;;;;;5051482;28;20038;-66
2022/05/26 12:37:54;;;;;;;;;;;27.60;99.90;;;;;;5049566;28;19913;-64
2022/05/26 12:40:40;;;;;;;;;;;27.70;99.90;;;;;;5047018;28;19923;-66
2022/05/26 12:43:18;;;;;;;;;;;27.90;99.90;;;;;;5046106;28;19913;-66
2022/05/26 12:45:48;;;;;;;;;;;27.80;99.90;;;;;;5047345;28;19913;-67
2022/05/26 12:48:18;;;;;;;;;;;27.70;99.90;;;;;;5047892;28;19967;-66
2022/05/26 12:50:43;;;;;;;;;;;27.60;99.90;;;;;;5045559;28;20003;-67
2022/05/26 12:53:18;;;;;;;;;;;27.60;99.90;;;;;;5049191;28;20122;-65
2022/05/26 12:55:48;;;;;;;;;;;27.70;99.90;;;;;;5047349;28;19917;-67
2022/05/26 12:58:21;;;;;;;;;;;27.80;99.90;;;;;;5051676;28;19970;-64
2022/05/26 13:00:56;;;;;;;;;;;27.70;99.90;;;;;;5043998;28;19913;-66
2022/05/26 13:03:27;;;;;;;;;;;27.60;99.90;;;;;;5051495;28;19916;-67
2022/05/26 13:06:13;;;;;;;;;;;27.50;99.90;;;;;;5054229;28;20004;-65
2022/05/26 13:08:54;;;;;;;;;;;27.20;99.90;;;;;;5019625;28;19917;-67
2022/05/26 13:11:21;;;;;;;;;;;26.90;99.90;;;;;;5066270;28;19912;-68
2022/05/26 13:13:51;;;;;;;;;;;26.90;99.90;;;;;;5056633;28;19909;-66
2022/05/26 13:16:20;;;;;;;;;;;26.90;99.90;;;;;;5048969;28;19920;-66
2022/05/26 13:18:46;;;;;;;;;;;27.00;99.90;;;;;;5046967;28;19923;-66
2022/05/26 13:21:18;;;;;;;;;;;27.00;99.90;;;;;;5047360;28;19913;-67
2022/05/26 13:23:44;;;;;;;;;;;27.00;99.90;;;;;;5050973;28;19919;-65
2022/05/26 13:26:11;;;;;;;;;;;27.00;99.90;;;;;;5047930;28;19909;-66
2022/05/26 13:28:39;;;;;;;;;;;26.90;99.90;;;;;;5044563;28;19939;-64
2022/05/26 13:33:49;;;;;;;;;;;26.70;99.90;;;;;;5052951;28;19919;-65
2022/05/26 13:36:35;;;;;;;;;;;26.80;99.90;;;;;;5046989;28;19909;-65
2022/05/26 13:39:11;;;;;;;;;;;26.70;99.90;;;;;;5053648;28;19924;-65
2022/05/26 13:41:37;;;;;;;;;;;26.60;99.90;;;;;;5046994;28;19955;-65
2022/05/26 13:44:05;;;;;;;;;;;26.70;99.90;;;;;;5055599;28;20283;-66
2022/05/26 13:46:51;;;;;;;;;;;26.70;99.90;;;;;;5048868;28;19915;-66
2022/05/26 13:49:27;;;;;;;;;;;26.80;99.90;;;;;;5046955;28;19976;-65
2022/05/26 13:51:53;;;;;;;;;;;26.90;99.90;;;;;;5046687;28;19909;-64
2022/05/26 13:54:25;;;;;;;;;;;27.00;99.90;;;;;;5043009;28;19921;-65
2022/05/26 13:56:51;;;;;;;;;;;27.10;99.90;;;;;;5047580;28;19913;-65
2022/05/26 13:59:16;;;;;;;;;;;27.30;99.90;;;;;;5056900;28;19917;-67
2022/05/26 14:01:54;;;;;;;;;;;27.50;99.90;;;;;;5032994;28;19958;-65
2022/05/26 14:04:22;;;;;;;;;;;27.70;99.90;;;;;;5049679;28;19982;-67
2022/05/26 14:06:47;;;;;;;;;;;27.90;99.90;;;;;;5050224;28;19920;-64
2022/05/26 14:09:25;;;;;;;;;;;28.00;99.90;;;;;;5049213;28;19925;-67
2022/05/26 14:12:02;;;;;;;;;;;28.10;99.90;;;;;;5051274;28;19909;-67
2022/05/26 14:14:29;;;;;;;;;;;28.10;99.90;;;;;;5051979;28;19913;-66
2022/05/26 14:16:56;;;;;;;;;;;28.00;99.90;;;;;;5050621;28;19919;-65
2022/05/26 14:19:25;;;;;;;;;;;28.10;99.90;;;;;;5050102;28;19913;-66
2022/05/26 14:21:51;;;;;;;;;;;28.20;99.90;;;;;;5051066;28;20454;-65
2022/05/26 14:24:17;;;;;;;;;;;28.20;99.90;;;;;;5051520;28;19948;-67
2022/05/26 14:26:46;;;;;;;;;;;27.90;99.90;;;;;;5044135;28;20334;-65
2022/05/26 14:29:15;;;;;;;;;;;27.50;99.90;;;;;;5047770;28;20367;-63
2022/05/26 14:31:55;;;;;;;;;;;27.30;99.90;;;;;;5052446;28;20378;-65
2022/05/26 14:34:21;;;;;;;;;;;27.40;99.90;;;;;;5060034;28;19915;-64
2022/05/26 14:36:46;;;;;;;;;;;27.60;99.90;;;;;;5046571;28;20298;-64
2022/05/26 14:39:12;;;;;;;;;;;27.60;99.90;;;;;;5046775;28;19920;-66
2022/05/26 14:41:38;;;;;;;;;;;27.50;99.90;;;;;;5048916;28;20658;-65
2022/05/26 14:44:05;;;;;;;;;;;27.40;99.90;;;;;;5045966;28;19920;-67
2022/05/26 14:46:30;;;;;;;;;;;27.40;99.90;;;;;;5047234;28;19919;-65
2022/05/26 14:48:56;;;;;;;;;;;27.40;99.90;;;;;;5049581;28;19913;-64
2022/05/26 14:51:24;;;;;;;;;;;27.40;99.90;;;;;;5031375;28;20252;-66
2022/05/26 14:56:34;;;;;;;;;;;26.70;99.90;;;;;;5045189;28;19920;-65
2022/05/26 14:58:59;;;;;;;;;;;26.80;99.90;;;;;;5050924;28;19916;-65
2022/05/26 15:01:25;;;;;;;;;;;26.70;99.90;;;;;;5050019;28;20441;-67
2022/05/26 15:03:50;;;;;;;;;;;26.80;99.90;;;;;;5059222;28;19928;-64